sensor_id;sensor_type;location;lat;lon;timestamp;P1;durP1;ratioP1;P2;durP2;ratioP2
15167;SDS011;7684;52.150;11.656;2022-07-23T00:01:36;8.23;;;6.43;;
15167;SDS011;7684;52.150;11.656;2022-07-23T00:04:02;8.87;;;6.57;;
15167;SDS011;7684;52.150;11.656;2022-07-23T00:06:28;8.10;;;7.30;;
15167;SDS011;7684;52.150;11.656;2022-07-23T00:08:55;7.23;;;6.53;;
15167;SDS011;7684;52.150;11.656;2022-07-23T00:11:21;7.70;;;6.90;;
15167;SDS011;7684;52.150;11.656;2022-07-23T00:13:48;8.77;;;7.00;;
15167;SDS011;7684;52.150;11.656;2022-07-23T00:16:14;8.13;;;7.17;;
15167;SDS011;7684;52.150;11.656;2022-07-23T00:18:42;8.30;;;6.97;;
15167;SDS011;7684;52.150;11.656;2022-07-23T00:21:08;13.30;;;8.47;;
15167;SDS011;7684;52.150;11.656;2022-07-23T00:23:34;7.57;;;6.83;;
15167;SDS011;7684;52.150;11.656;2022-07-23T00:26:01;8.30;;;6.90;;
15167;SDS011;7684;52.150;11.656;2022-07-23T00:28:27;7.03;;;6.37;;
15167;SDS011;7684;52.150;11.656;2022-07-23T00:30:53;8.03;;;7.00;;
15167;SDS011;7684;52.150;11.656;2022-07-23T00:33:20;9.03;;;6.87;;
15167;SDS011;7684;52.150;11.656;2022-07-23T00:35:47;9.37;;;7.47;;
15167;SDS011;7684;52.150;11.656;2022-07-23T00:38:14;13.00;;;10.40;;
15167;SDS011;7684;52.150;11.656;2022-07-23T00:40:40;20.80;;;17.03;;
15167;SDS011;7684;52.150;11.656;2022-07-23T00:43:07;11.10;;;9.30;;
15167;SDS011;7684;52.150;11.656;2022-07-23T00:45:34;13.17;;;10.27;;
15167;SDS011;7684;52.150;11.656;2022-07-23T00:48:00;10.50;;;9.03;;
15167;SDS011;7684;52.150;11.656;2022-07-23T00:50:27;9.83;;;7.27;;
15167;SDS011;7684;52.150;11.656;2022-07-23T00:52:55;9.57;;;6.43;;
15167;SDS011;7684;52.150;11.656;2022-07-23T00:55:21;10.00;;;7.33;;
15167;SDS011;7684;52.150;11.656;2022-07-23T00:57:48;9.10;;;7.60;;
15167;SDS011;7684;52.150;11.656;2022-07-23T01:00:15;9.97;;;6.73;;
15167;SDS011;7684;52.150;11.656;2022-07-23T01:02:42;10.40;;;6.90;;
15167;SDS011;7684;52.150;11.656;2022-07-23T01:05:08;8.77;;;6.60;;
15167;SDS011;7684;52.150;11.656;2022-07-23T01:07:35;7.63;;;6.73;;
15167;SDS011;7684;52.150;11.656;2022-07-23T01:10:03;9.40;;;6.93;;
15167;SDS011;7684;52.150;11.656;2022-07-23T01:12:50;7.33;;;6.43;;
15167;SDS011;7684;52.150;11.656;2022-07-23T01:15:16;8.47;;;6.50;;
15167;SDS011;7684;52.150;11.656;2022-07-23T01:17:43;8.03;;;6.67;;
15167;SDS011;7684;52.150;11.656;2022-07-23T01:20:09;8.67;;;6.77;;
15167;SDS011;7684;52.150;11.656;2022-07-23T01:22:37;11.50;;;7.47;;
15167;SDS011;7684;52.150;11.656;2022-07-23T01:25:04;7.80;;;6.83;;
15167;SDS011;7684;52.150;11.656;2022-07-23T01:27:30;8.60;;;7.23;;
15167;SDS011;7684;52.150;11.656;2022-07-23T01:29:57;9.73;;;7.37;;
15167;SDS011;7684;52.150;11.656;2022-07-23T01:32:25;8.73;;;7.63;;
15167;SDS011;7684;52.150;11.656;2022-07-23T01:34:51;10.13;;;7.27;;
15167;SDS011;7684;52.150;11.656;2022-07-23T01:37:18;9.30;;;7.03;;
15167;SDS011;7684;52.150;11.656;2022-07-23T01:39:46;9.33;;;7.10;;
15167;SDS011;7684;52.150;11.656;2022-07-23T01:42:12;7.00;;;6.07;;
15167;SDS011;7684;52.150;11.656;2022-07-23T01:44:38;7.87;;;7.07;;
15167;SDS011;7684;52.150;11.656;2022-07-23T01:47:05;7.80;;;7.10;;
15167;SDS011;7684;52.150;11.656;2022-07-23T01:49:31;9.07;;;7.40;;
15167;SDS011;7684;52.150;11.656;2022-07-23T01:51:58;11.40;;;7.30;;
15167;SDS011;7684;52.150;11.656;2022-07-23T01:54:27;7.47;;;6.73;;
15167;SDS011;7684;52.150;11.656;2022-07-23T01:56:55;7.50;;;6.80;;
15167;SDS011;7684;52.150;11.656;2022-07-23T01:59:21;8.70;;;6.57;;
15167;SDS011;7684;52.150;11.656;2022-07-23T02:01:48;6.97;;;6.20;;
15167;SDS011;7684;52.150;11.656;2022-07-23T02:04:15;8.77;;;6.73;;
15167;SDS011;7684;52.150;11.656;2022-07-23T02:06:42;6.87;;;6.03;;
15167;SDS011;7684;52.150;11.656;2022-07-23T02:09:08;11.87;;;6.50;;
15167;SDS011;7684;52.150;11.656;2022-07-23T02:11:34;9.03;;;6.60;;
15167;SDS011;7684;52.150;11.656;2022-07-23T02:14:02;9.37;;;6.30;;
15167;SDS011;7684;52.150;11.656;2022-07-23T02:16:28;6.20;;;5.67;;
15167;SDS011;7684;52.150;11.656;2022-07-23T02:18:55;8.20;;;6.73;;
15167;SDS011;7684;52.150;11.656;2022-07-23T02:21:22;9.63;;;6.60;;
15167;SDS011;7684;52.150;11.656;2022-07-23T02:23:48;9.83;;;7.33;;
15167;SDS011;7684;52.150;11.656;2022-07-23T02:26:15;8.17;;;6.73;;
15167;SDS011;7684;52.150;11.656;2022-07-23T02:28:41;8.10;;;6.63;;
15167;SDS011;7684;52.150;11.656;2022-07-23T02:31:09;8.50;;;7.53;;
15167;SDS011;7684;52.150;11.656;2022-07-23T02:33:35;9.90;;;6.90;;
15167;SDS011;7684;52.150;11.656;2022-07-23T02:36:02;9.93;;;7.67;;
15167;SDS011;7684;52.150;11.656;2022-07-23T02:38:28;9.87;;;6.50;;
15167;SDS011;7684;52.150;11.656;2022-07-23T02:40:54;8.17;;;6.23;;
15167;SDS011;7684;52.150;11.656;2022-07-23T02:43:21;9.77;;;7.43;;
15167;SDS011;7684;52.150;11.656;2022-07-23T02:45:47;7.93;;;7.07;;
15167;SDS011;7684;52.150;11.656;2022-07-23T02:48:15;9.17;;;7.27;;
15167;SDS011;7684;52.150;11.656;2022-07-23T02:50:41;10.77;;;7.90;;
15167;SDS011;7684;52.150;11.656;2022-07-23T02:53:08;11.40;;;8.30;;
15167;SDS011;7684;52.150;11.656;2022-07-23T02:55:34;9.97;;;8.77;;
15167;SDS011;7684;52.150;11.656;2022-07-23T02:58:00;10.47;;;8.53;;
15167;SDS011;7684;52.150;11.656;2022-07-23T03:00:27;11.83;;;8.40;;
15167;SDS011;7684;52.150;11.656;2022-07-23T03:02:54;8.73;;;7.73;;
15167;SDS011;7684;52.150;11.656;2022-07-23T03:05:21;8.97;;;8.00;;
15167;SDS011;7684;52.150;11.656;2022-07-23T03:07:48;9.10;;;7.80;;
15167;SDS011;7684;52.150;11.656;2022-07-23T03:10:14;10.80;;;8.27;;
15167;SDS011;7684;52.150;11.656;2022-07-23T03:12:40;9.87;;;8.87;;
15167;SDS011;7684;52.150;11.656;2022-07-23T03:15:07;9.20;;;7.60;;
15167;SDS011;7684;52.150;11.656;2022-07-23T03:17:34;9.20;;;8.03;;
15167;SDS011;7684;52.150;11.656;2022-07-23T03:20:00;9.60;;;7.97;;
15167;SDS011;7684;52.150;11.656;2022-07-23T03:22:28;10.90;;;7.90;;
15167;SDS011;7684;52.150;11.656;2022-07-23T03:24:54;9.03;;;8.13;;
15167;SDS011;7684;52.150;11.656;2022-07-23T03:27:21;10.77;;;9.13;;
15167;SDS011;7684;52.150;11.656;2022-07-23T03:29:48;9.20;;;8.10;;
15167;SDS011;7684;52.150;11.656;2022-07-23T03:32:14;10.03;;;7.93;;
15167;SDS011;7684;52.150;11.656;2022-07-23T03:34:40;9.27;;;8.30;;
15167;SDS011;7684;52.150;11.656;2022-07-23T03:37:06;9.33;;;8.53;;
15167;SDS011;7684;52.150;11.656;2022-07-23T03:39:34;10.40;;;8.67;;
15167;SDS011;7684;52.150;11.656;2022-07-23T03:42:01;10.23;;;8.53;;
15167;SDS011;7684;52.150;11.656;2022-07-23T03:44:28;11.70;;;8.77;;
15167;SDS011;7684;52.150;11.656;2022-07-23T03:46:54;9.27;;;8.37;;
15167;SDS011;7684;52.150;11.656;2022-07-23T03:49:20;9.97;;;8.57;;
15167;SDS011;7684;52.150;11.656;2022-07-23T03:51:47;11.00;;;8.70;;
15167;SDS011;7684;52.150;11.656;2022-07-23T03:54:13;13.23;;;9.90;;
15167;SDS011;7684;52.150;11.656;2022-07-23T03:56:41;10.10;;;9.00;;
15167;SDS011;7684;52.150;11.656;2022-07-23T03:59:08;10.20;;;9.07;;
15167;SDS011;7684;52.150;11.656;2022-07-23T04:01:35;10.77;;;8.97;;
15167;SDS011;7684;52.150;11.656;2022-07-23T04:04:01;10.23;;;8.97;;
15167;SDS011;7684;52.150;11.656;2022-07-23T04:06:28;9.67;;;8.47;;
15167;SDS011;7684;52.150;11.656;2022-07-23T04:08:54;11.27;;;10.07;;
15167;SDS011;7684;52.150;11.656;2022-07-23T04:11:21;9.83;;;8.83;;
15167;SDS011;7684;52.150;11.656;2022-07-23T04:13:49;11.10;;;9.07;;
15167;SDS011;7684;52.150;11.656;2022-07-23T04:16:15;10.43;;;9.33;;
15167;SDS011;7684;52.150;11.656;2022-07-23T04:18:41;10.37;;;9.37;;
15167;SDS011;7684;52.150;11.656;2022-07-23T04:21:08;10.03;;;9.00;;
15167;SDS011;7684;52.150;11.656;2022-07-23T04:23:35;11.20;;;9.77;;
15167;SDS011;7684;52.150;11.656;2022-07-23T04:26:01;10.93;;;9.57;;
15167;SDS011;7684;52.150;11.656;2022-07-23T04:28:27;11.80;;;10.13;;
15167;SDS011;7684;52.150;11.656;2022-07-23T04:30:56;13.00;;;10.00;;
15167;SDS011;7684;52.150;11.656;2022-07-23T04:33:23;10.17;;;9.17;;
15167;SDS011;7684;52.150;11.656;2022-07-23T04:35:49;12.57;;;10.67;;
15167;SDS011;7684;52.150;11.656;2022-07-23T04:38:16;11.00;;;9.30;;
15167;SDS011;7684;52.150;11.656;2022-07-23T04:40:42;9.43;;;8.50;;
15167;SDS011;7684;52.150;11.656;2022-07-23T04:43:08;9.93;;;8.77;;
15167;SDS011;7684;52.150;11.656;2022-07-23T04:45:35;10.17;;;9.07;;
15167;SDS011;7684;52.150;11.656;2022-07-23T04:48:03;14.80;;;9.80;;
15167;SDS011;7684;52.150;11.656;2022-07-23T04:50:29;9.83;;;8.90;;
15167;SDS011;7684;52.150;11.656;2022-07-23T04:52:56;12.13;;;8.40;;
15167;SDS011;7684;52.150;11.656;2022-07-23T04:55:22;11.37;;;9.07;;
15167;SDS011;7684;52.150;11.656;2022-07-23T04:57:48;10.07;;;8.67;;
15167;SDS011;7684;52.150;11.656;2022-07-23T05:00:15;10.37;;;8.70;;
15167;SDS011;7684;52.150;11.656;2022-07-23T05:02:41;9.60;;;8.70;;
15167;SDS011;7684;52.150;11.656;2022-07-23T05:05:09;9.07;;;8.10;;
15167;SDS011;7684;52.150;11.656;2022-07-23T05:07:36;10.67;;;9.47;;
15167;SDS011;7684;52.150;11.656;2022-07-23T05:10:02;9.50;;;8.70;;
15167;SDS011;7684;52.150;11.656;2022-07-23T05:12:28;10.23;;;8.30;;
15167;SDS011;7684;52.150;11.656;2022-07-23T05:14:55;10.20;;;8.87;;
15167;SDS011;7684;52.150;11.656;2022-07-23T05:17:21;9.40;;;8.40;;
15167;SDS011;7684;52.150;11.656;2022-07-23T05:19:48;18.17;;;8.73;;
15167;SDS011;7684;52.150;11.656;2022-07-23T05:22:16;10.20;;;9.13;;
15167;SDS011;7684;52.150;11.656;2022-07-23T05:24:42;9.57;;;8.53;;
15167;SDS011;7684;52.150;11.656;2022-07-23T05:27:09;9.40;;;8.43;;
15167;SDS011;7684;52.150;11.656;2022-07-23T05:29:35;10.83;;;8.57;;
15167;SDS011;7684;52.150;11.656;2022-07-23T05:32:01;10.10;;;9.13;;
15167;SDS011;7684;52.150;11.656;2022-07-23T05:34:28;9.07;;;8.17;;
15167;SDS011;7684;52.150;11.656;2022-07-23T05:36:54;10.23;;;8.63;;
15167;SDS011;7684;52.150;11.656;2022-07-23T05:39:22;10.07;;;7.50;;
15167;SDS011;7684;52.150;11.656;2022-07-23T05:41:49;9.37;;;7.20;;
15167;SDS011;7684;52.150;11.656;2022-07-23T05:44:15;9.37;;;8.03;;
15167;SDS011;7684;52.150;11.656;2022-07-23T05:46:42;8.60;;;7.43;;
15167;SDS011;7684;52.150;11.656;2022-07-23T05:49:08;9.13;;;8.17;;
15167;SDS011;7684;52.150;11.656;2022-07-23T05:51:35;8.60;;;7.23;;
15167;SDS011;7684;52.150;11.656;2022-07-23T05:54:01;8.80;;;7.50;;
15167;SDS011;7684;52.150;11.656;2022-07-23T05:56:29;9.43;;;8.37;;
15167;SDS011;7684;52.150;11.656;2022-07-23T05:58:56;9.40;;;8.03;;
15167;SDS011;7684;52.150;11.656;2022-07-23T06:01:23;10.03;;;8.03;;
15167;SDS011;7684;52.150;11.656;2022-07-23T06:03:49;8.53;;;7.40;;
15167;SDS011;7684;52.150;11.656;2022-07-23T06:06:16;9.07;;;7.63;;
15167;SDS011;7684;52.150;11.656;2022-07-23T06:08:42;9.70;;;7.47;;
15167;SDS011;7684;52.150;11.656;2022-07-23T06:11:09;11.43;;;7.53;;
15167;SDS011;7684;52.150;11.656;2022-07-23T06:13:37;7.87;;;6.90;;
15167;SDS011;7684;52.150;11.656;2022-07-23T06:16:03;7.93;;;6.93;;
15167;SDS011;7684;52.150;11.656;2022-07-23T06:18:30;8.13;;;6.63;;
15167;SDS011;7684;52.150;11.656;2022-07-23T06:20:56;8.53;;;6.93;;
15167;SDS011;7684;52.150;11.656;2022-07-23T06:23:23;8.87;;;7.10;;
15167;SDS011;7684;52.150;11.656;2022-07-23T06:25:49;7.43;;;6.70;;
15167;SDS011;7684;52.150;11.656;2022-07-23T06:28:16;9.67;;;7.93;;
15167;SDS011;7684;52.150;11.656;2022-07-23T06:30:43;8.63;;;6.93;;
15167;SDS011;7684;52.150;11.656;2022-07-23T06:33:10;10.83;;;7.13;;
15167;SDS011;7684;52.150;11.656;2022-07-23T06:35:37;10.07;;;6.87;;
15167;SDS011;7684;52.150;11.656;2022-07-23T06:38:04;7.80;;;6.90;;
15167;SDS011;7684;52.150;11.656;2022-07-23T06:40:30;8.17;;;7.27;;
15167;SDS011;7684;52.150;11.656;2022-07-23T06:42:57;10.40;;;7.63;;
15167;SDS011;7684;52.150;11.656;2022-07-23T06:45:23;9.00;;;8.10;;
15167;SDS011;7684;52.150;11.656;2022-07-23T06:47:51;10.23;;;7.50;;
15167;SDS011;7684;52.150;11.656;2022-07-23T06:50:17;8.30;;;7.30;;
15167;SDS011;7684;52.150;11.656;2022-07-23T06:52:44;8.73;;;7.00;;
15167;SDS011;7684;52.150;11.656;2022-07-23T06:55:11;8.53;;;7.23;;
15167;SDS011;7684;52.150;11.656;2022-07-23T06:57:37;10.17;;;7.27;;
15167;SDS011;7684;52.150;11.656;2022-07-23T07:00:04;10.77;;;8.17;;
15167;SDS011;7684;52.150;11.656;2022-07-23T07:02:31;8.03;;;7.23;;
15167;SDS011;7684;52.150;11.656;2022-07-23T07:04:59;8.83;;;7.47;;
15167;SDS011;7684;52.150;11.656;2022-07-23T07:07:26;9.90;;;7.07;;
15167;SDS011;7684;52.150;11.656;2022-07-23T07:09:52;8.70;;;6.47;;
15167;SDS011;7684;52.150;11.656;2022-07-23T07:12:19;7.53;;;6.47;;
15167;SDS011;7684;52.150;11.656;2022-07-23T07:14:46;7.45;;;6.03;;
15167;SDS011;7684;52.150;11.656;2022-07-23T07:17:13;9.57;;;6.72;;
15167;SDS011;7684;52.150;11.656;2022-07-23T07:19:40;6.82;;;5.88;;
15167;SDS011;7684;52.150;11.656;2022-07-23T07:22:08;8.63;;;6.43;;
15167;SDS011;7684;52.150;11.656;2022-07-23T07:24:36;12.77;;;6.47;;
15167;SDS011;7684;52.150;11.656;2022-07-23T07:27:02;9.47;;;6.67;;
15167;SDS011;7684;52.150;11.656;2022-07-23T07:29:29;7.53;;;6.07;;
15167;SDS011;7684;52.150;11.656;2022-07-23T07:31:55;7.78;;;6.50;;
15167;SDS011;7684;52.150;11.656;2022-07-23T07:34:22;8.37;;;6.27;;
15167;SDS011;7684;52.150;11.656;2022-07-23T07:36:48;9.40;;;6.37;;
15167;SDS011;7684;52.150;11.656;2022-07-23T07:39:16;9.80;;;6.17;;
15167;SDS011;7684;52.150;11.656;2022-07-23T07:41:43;10.17;;;7.00;;
15167;SDS011;7684;52.150;11.656;2022-07-23T07:44:09;12.73;;;7.10;;
15167;SDS011;7684;52.150;11.656;2022-07-23T07:46:35;8.30;;;7.20;;
15167;SDS011;7684;52.150;11.656;2022-07-23T07:49:01;7.00;;;6.40;;
15167;SDS011;7684;52.150;11.656;2022-07-23T07:51:28;9.68;;;6.93;;
15167;SDS011;7684;52.150;11.656;2022-07-23T07:53:54;9.40;;;6.38;;
15167;SDS011;7684;52.150;11.656;2022-07-23T07:56:22;9.15;;;6.60;;
15167;SDS011;7684;52.150;11.656;2022-07-23T07:58:48;10.13;;;7.23;;
15167;SDS011;7684;52.150;11.656;2022-07-23T08:01:15;12.37;;;8.00;;
15167;SDS011;7684;52.150;11.656;2022-07-23T08:03:42;10.33;;;6.97;;
15167;SDS011;7684;52.150;11.656;2022-07-23T08:06:08;11.20;;;6.88;;
15167;SDS011;7684;52.150;11.656;2022-07-23T08:08:34;8.80;;;6.90;;
15167;SDS011;7684;52.150;11.656;2022-07-23T08:11:01;8.32;;;7.10;;
15167;SDS011;7684;52.150;11.656;2022-07-23T08:13:28;8.90;;;6.35;;
15167;SDS011;7684;52.150;11.656;2022-07-23T08:15:55;9.82;;;8.10;;
15167;SDS011;7684;52.150;11.656;2022-07-23T08:18:21;7.95;;;6.40;;
15167;SDS011;7684;52.150;11.656;2022-07-23T08:20:47;9.48;;;7.28;;
15167;SDS011;7684;52.150;11.656;2022-07-23T08:23:13;8.38;;;7.22;;
15167;SDS011;7684;52.150;11.656;2022-07-23T08:25:43;8.50;;;7.00;;
15167;SDS011;7684;52.150;11.656;2022-07-23T08:28:10;10.23;;;7.20;;
15167;SDS011;7684;52.150;11.656;2022-07-23T08:30:39;10.18;;;6.82;;
15167;SDS011;7684;52.150;11.656;2022-07-23T08:33:06;10.23;;;7.63;;
15167;SDS011;7684;52.150;11.656;2022-07-23T08:35:33;7.65;;;6.22;;
15167;SDS011;7684;52.150;11.656;2022-07-23T08:38:00;8.93;;;6.78;;
15167;SDS011;7684;52.150;11.656;2022-07-23T08:40:28;7.97;;;6.50;;
15167;SDS011;7684;52.150;11.656;2022-07-23T08:42:54;9.20;;;6.70;;
15167;SDS011;7684;52.150;11.656;2022-07-23T08:45:21;7.78;;;6.53;;
15167;SDS011;7684;52.150;11.656;2022-07-23T08:47:53;8.80;;;6.25;;
15167;SDS011;7684;52.150;11.656;2022-07-23T08:50:19;6.85;;;6.03;;
15167;SDS011;7684;52.150;11.656;2022-07-23T08:52:46;8.15;;;5.88;;
15167;SDS011;7684;52.150;11.656;2022-07-23T08:55:12;6.25;;;5.55;;
15167;SDS011;7684;52.150;11.656;2022-07-23T08:57:39;5.95;;;5.30;;
15167;SDS011;7684;52.150;11.656;2022-07-23T09:00:05;6.30;;;4.68;;
15167;SDS011;7684;52.150;11.656;2022-07-23T09:02:38;7.10;;;5.60;;
15167;SDS011;7684;52.150;11.656;2022-07-23T09:05:06;6.22;;;5.53;;
15167;SDS011;7684;52.150;11.656;2022-07-23T09:07:32;8.27;;;5.28;;
15167;SDS011;7684;52.150;11.656;2022-07-23T09:10:04;7.10;;;4.95;;
15167;SDS011;7684;52.150;11.656;2022-07-23T09:12:31;6.15;;;5.47;;
15167;SDS011;7684;52.150;11.656;2022-07-23T09:14:57;7.05;;;5.05;;
15167;SDS011;7684;52.150;11.656;2022-07-23T09:17:29;6.22;;;4.13;;
15167;SDS011;7684;52.150;11.656;2022-07-23T09:20:08;6.93;;;3.97;;
15167;SDS011;7684;52.150;11.656;2022-07-23T09:22:35;5.40;;;4.05;;
15167;SDS011;7684;52.150;11.656;2022-07-23T09:25:02;5.03;;;3.30;;
15167;SDS011;7684;52.150;11.656;2022-07-23T09:27:44;6.30;;;3.65;;
15167;SDS011;7684;52.150;11.656;2022-07-23T09:30:11;6.28;;;3.60;;
15167;SDS011;7684;52.150;11.656;2022-07-23T09:32:38;4.55;;;3.58;;
15167;SDS011;7684;52.150;11.656;2022-07-23T09:35:05;4.05;;;2.67;;
15167;SDS011;7684;52.150;11.656;2022-07-23T09:37:33;6.75;;;3.17;;
15167;SDS011;7684;52.150;11.656;2022-07-23T09:40:03;5.47;;;3.47;;
15167;SDS011;7684;52.150;11.656;2022-07-23T09:42:29;4.85;;;3.10;;
15167;SDS011;7684;52.150;11.656;2022-07-23T09:44:57;3.42;;;2.72;;
15167;SDS011;7684;52.150;11.656;2022-07-23T09:47:25;3.95;;;2.80;;
15167;SDS011;7684;52.150;11.656;2022-07-23T09:49:58;3.85;;;2.53;;
15167;SDS011;7684;52.150;11.656;2022-07-23T09:52:26;3.25;;;2.03;;
15167;SDS011;7684;52.150;11.656;2022-07-23T09:54:58;7.25;;;2.70;;
15167;SDS011;7684;52.150;11.656;2022-07-23T09:57:25;4.25;;;2.40;;
15167;SDS011;7684;52.150;11.656;2022-07-23T09:59:52;4.20;;;2.47;;
15167;SDS011;7684;52.150;11.656;2022-07-23T10:02:19;4.03;;;2.08;;
15167;SDS011;7684;52.150;11.656;2022-07-23T10:04:46;2.67;;;2.10;;
15167;SDS011;7684;52.150;11.656;2022-07-23T10:07:13;2.92;;;2.40;;
15167;SDS011;7684;52.150;11.656;2022-07-23T10:09:43;2.95;;;1.88;;
15167;SDS011;7684;52.150;11.656;2022-07-23T10:12:12;4.60;;;2.53;;
15167;SDS011;7684;52.150;11.656;2022-07-23T10:14:52;4.72;;;2.75;;
15167;SDS011;7684;52.150;11.656;2022-07-23T10:17:19;3.88;;;3.10;;
15167;SDS011;7684;52.150;11.656;2022-07-23T10:19:45;5.32;;;3.30;;
15167;SDS011;7684;52.150;11.656;2022-07-23T10:22:14;3.33;;;2.67;;
15167;SDS011;7684;52.150;11.656;2022-07-23T10:24:47;4.18;;;3.00;;
15167;SDS011;7684;52.150;11.656;2022-07-23T10:27:23;3.40;;;2.83;;
15167;SDS011;7684;52.150;11.656;2022-07-23T10:29:55;3.75;;;2.20;;
15167;SDS011;7684;52.150;11.656;2022-07-23T10:32:26;4.22;;;2.65;;
15167;SDS011;7684;52.150;11.656;2022-07-23T10:34:55;3.22;;;2.53;;
15167;SDS011;7684;52.150;11.656;2022-07-23T10:37:26;2.53;;;2.20;;
15167;SDS011;7684;52.150;11.656;2022-07-23T10:40:11;3.58;;;2.45;;
15167;SDS011;7684;52.150;11.656;2022-07-23T10:42:39;5.05;;;3.17;;
15167;SDS011;7684;52.150;11.656;2022-07-23T10:45:23;3.60;;;2.75;;
15167;SDS011;7684;52.150;11.656;2022-07-23T10:47:50;4.03;;;3.15;;
15167;SDS011;7684;52.150;11.656;2022-07-23T10:50:18;3.42;;;2.30;;
15167;SDS011;7684;52.150;11.656;2022-07-23T10:58:11;5.43;;;2.72;;
15167;SDS011;7684;52.150;11.656;2022-07-23T11:00:42;4.75;;;2.80;;
15167;SDS011;7684;52.150;11.656;2022-07-23T11:05:50;2.60;;;2.38;;
15167;SDS011;7684;52.150;11.656;2022-07-23T11:08:17;2.97;;;2.70;;
15167;SDS011;7684;52.150;11.656;2022-07-23T11:10:46;3.70;;;2.00;;
15167;SDS011;7684;52.150;11.656;2022-07-23T11:16:05;3.78;;;2.55;;
15167;SDS011;7684;52.150;11.656;2022-07-23T11:24:03;3.08;;;1.70;;
15167;SDS011;7684;52.150;11.656;2022-07-23T11:26:42;2.15;;;1.80;;
15167;SDS011;7684;52.150;11.656;2022-07-23T11:31:53;1.92;;;1.30;;
15167;SDS011;7684;52.150;11.656;2022-07-23T11:34:27;2.80;;;1.30;;
15167;SDS011;7684;52.150;11.656;2022-07-23T11:36:54;3.90;;;1.42;;
15167;SDS011;7684;52.150;11.656;2022-07-23T11:39:21;1.75;;;1.20;;
15167;SDS011;7684;52.150;11.656;2022-07-23T11:41:50;2.72;;;1.40;;
15167;SDS011;7684;52.150;11.656;2022-07-23T11:44:23;2.50;;;1.50;;
15167;SDS011;7684;52.150;11.656;2022-07-23T11:46:55;1.67;;;1.10;;
15167;SDS011;7684;52.150;11.656;2022-07-23T11:49:22;3.58;;;1.23;;
15167;SDS011;7684;52.150;11.656;2022-07-23T11:52:01;2.60;;;1.60;;
15167;SDS011;7684;52.150;11.656;2022-07-23T11:54:28;3.80;;;1.60;;
15167;SDS011;7684;52.150;11.656;2022-07-23T11:56:56;1.80;;;1.30;;
15167;SDS011;7684;52.150;11.656;2022-07-23T11:59:22;6.03;;;1.25;;
15167;SDS011;7684;52.150;11.656;2022-07-23T12:01:57;2.13;;;1.08;;
15167;SDS011;7684;52.150;11.656;2022-07-23T12:04:24;2.17;;;1.00;;
15167;SDS011;7684;52.150;11.656;2022-07-23T12:06:51;1.55;;;1.30;;
15167;SDS011;7684;52.150;11.656;2022-07-23T12:09:17;1.58;;;1.02;;
15167;SDS011;7684;52.150;11.656;2022-07-23T12:11:56;2.45;;;1.10;;
15167;SDS011;7684;52.150;11.656;2022-07-23T12:14:22;1.20;;;1.10;;
15167;SDS011;7684;52.150;11.656;2022-07-23T12:19:31;1.48;;;1.10;;
15167;SDS011;7684;52.150;11.656;2022-07-23T12:21:57;2.13;;;0.90;;
15167;SDS011;7684;52.150;11.656;2022-07-23T12:24:24;3.47;;;1.20;;
15167;SDS011;7684;52.150;11.656;2022-07-23T12:29:33;2.00;;;1.05;;
15167;SDS011;7684;52.150;11.656;2022-07-23T12:32:00;3.85;;;1.23;;
15167;SDS011;7684;52.150;11.656;2022-07-23T12:34:26;4.15;;;1.33;;
15167;SDS011;7684;52.150;11.656;2022-07-23T12:36:54;2.65;;;1.00;;
15167;SDS011;7684;52.150;11.656;2022-07-23T12:39:29;1.30;;;1.00;;
15167;SDS011;7684;52.150;11.656;2022-07-23T12:41:55;1.40;;;1.08;;
15167;SDS011;7684;52.150;11.656;2022-07-23T12:44:22;1.10;;;0.73;;
15167;SDS011;7684;52.150;11.656;2022-07-23T12:46:49;2.35;;;0.90;;
15167;SDS011;7684;52.150;11.656;2022-07-23T12:49:24;1.13;;;0.70;;
15167;SDS011;7684;52.150;11.656;2022-07-23T12:51:51;1.52;;;0.90;;
15167;SDS011;7684;52.150;11.656;2022-07-23T12:54:19;1.98;;;0.70;;
15167;SDS011;7684;52.150;11.656;2022-07-23T12:56:52;1.58;;;0.73;;
15167;SDS011;7684;52.150;11.656;2022-07-23T12:59:19;2.45;;;1.17;;
15167;SDS011;7684;52.150;11.656;2022-07-23T13:01:53;4.55;;;1.20;;
15167;SDS011;7684;52.150;11.656;2022-07-23T13:04:20;2.30;;;0.88;;
15167;SDS011;7684;52.150;11.656;2022-07-23T13:06:47;2.30;;;0.65;;
15167;SDS011;7684;52.150;11.656;2022-07-23T13:09:15;3.30;;;0.95;;
15167;SDS011;7684;52.150;11.656;2022-07-23T13:11:43;2.50;;;0.80;;
15167;SDS011;7684;52.150;11.656;2022-07-23T13:14:10;2.38;;;0.80;;
15167;SDS011;7684;52.150;11.656;2022-07-23T13:16:37;2.28;;;0.65;;
15167;SDS011;7684;52.150;11.656;2022-07-23T13:19:03;2.60;;;0.85;;
15167;SDS011;7684;52.150;11.656;2022-07-23T13:21:30;1.45;;;0.95;;
15167;SDS011;7684;52.150;11.656;2022-07-23T13:23:56;3.40;;;1.00;;
15167;SDS011;7684;52.150;11.656;2022-07-23T13:26:23;3.10;;;1.00;;
15167;SDS011;7684;52.150;11.656;2022-07-23T13:28:51;1.77;;;0.90;;
15167;SDS011;7684;52.150;11.656;2022-07-23T13:31:17;0.73;;;0.65;;
15167;SDS011;7684;52.150;11.656;2022-07-23T13:33:44;2.20;;;0.88;;
15167;SDS011;7684;52.150;11.656;2022-07-23T13:36:11;1.35;;;0.98;;
15167;SDS011;7684;52.150;11.656;2022-07-23T13:38:38;1.20;;;0.80;;
15167;SDS011;7684;52.150;11.656;2022-07-23T13:41:04;2.33;;;1.02;;
15167;SDS011;7684;52.150;11.656;2022-07-23T13:43:31;1.27;;;0.80;;
15167;SDS011;7684;52.150;11.656;2022-07-23T13:45:59;1.85;;;0.88;;
15167;SDS011;7684;52.150;11.656;2022-07-23T13:48:25;1.75;;;0.73;;
15167;SDS011;7684;52.150;11.656;2022-07-23T13:50:55;1.48;;;0.77;;
15167;SDS011;7684;52.150;11.656;2022-07-23T13:53:22;1.42;;;0.90;;
15167;SDS011;7684;52.150;11.656;2022-07-23T13:55:50;3.17;;;0.80;;
15167;SDS011;7684;52.150;11.656;2022-07-23T13:58:16;3.00;;;1.00;;
15167;SDS011;7684;52.150;11.656;2022-07-23T14:00:45;0.73;;;0.55;;
15167;SDS011;7684;52.150;11.656;2022-07-23T14:03:13;1.25;;;0.82;;
15167;SDS011;7684;52.150;11.656;2022-07-23T14:05:39;1.00;;;0.80;;
15167;SDS011;7684;52.150;11.656;2022-07-23T14:08:06;1.60;;;0.80;;
15167;SDS011;7684;52.150;11.656;2022-07-23T14:10:33;1.73;;;1.00;;
15167;SDS011;7684;52.150;11.656;2022-07-23T14:12:59;1.45;;;0.75;;
15167;SDS011;7684;52.150;11.656;2022-07-23T14:15:27;1.88;;;0.82;;
15167;SDS011;7684;52.150;11.656;2022-07-23T14:17:54;1.10;;;0.70;;
15167;SDS011;7684;52.150;11.656;2022-07-23T14:20:22;1.35;;;0.52;;
15167;SDS011;7684;52.150;11.656;2022-07-23T14:22:49;1.52;;;0.60;;
15167;SDS011;7684;52.150;11.656;2022-07-23T14:25:16;1.30;;;0.60;;
15167;SDS011;7684;52.150;11.656;2022-07-23T14:27:43;0.60;;;0.50;;
15167;SDS011;7684;52.150;11.656;2022-07-23T14:30:10;2.30;;;0.70;;
15167;SDS011;7684;52.150;11.656;2022-07-23T14:32:37;1.02;;;0.70;;
15167;SDS011;7684;52.150;11.656;2022-07-23T14:35:04;1.33;;;0.52;;
15167;SDS011;7684;52.150;11.656;2022-07-23T14:37:32;1.70;;;0.68;;
15167;SDS011;7684;52.150;11.656;2022-07-23T14:39:58;1.55;;;0.50;;
15167;SDS011;7684;52.150;11.656;2022-07-23T14:42:25;0.80;;;0.60;;
15167;SDS011;7684;52.150;11.656;2022-07-23T14:44:51;2.10;;;0.70;;
15167;SDS011;7684;52.150;11.656;2022-07-23T14:47:18;1.48;;;0.73;;
15167;SDS011;7684;52.150;11.656;2022-07-23T14:49:44;2.22;;;0.63;;
15167;SDS011;7684;52.150;11.656;2022-07-23T14:52:11;2.92;;;0.80;;
15167;SDS011;7684;52.150;11.656;2022-07-23T14:54:38;0.90;;;0.68;;
15167;SDS011;7684;52.150;11.656;2022-07-23T14:57:05;2.10;;;0.60;;
15167;SDS011;7684;52.150;11.656;2022-07-23T14:59:33;1.42;;;0.70;;
15167;SDS011;7684;52.150;11.656;2022-07-23T15:02:00;1.52;;;0.60;;
15167;SDS011;7684;52.150;11.656;2022-07-23T15:04:26;2.10;;;0.50;;
15167;SDS011;7684;52.150;11.656;2022-07-23T15:06:53;1.30;;;0.50;;
15167;SDS011;7684;52.150;11.656;2022-07-23T15:09:19;2.85;;;0.60;;
15167;SDS011;7684;52.150;11.656;2022-07-23T15:11:47;1.17;;;0.60;;